sensor_id;sensor_type;location;lat;lon;timestamp;temperature;humidity
34646;DHT22;20857;47.808;12.482;2023-06-26T00:00:27;14.40;99.90
34646;DHT22;20857;47.808;12.482;2023-06-26T00:02:52;14.30;99.90
34646;DHT22;20857;47.808;12.482;2023-06-26T00:05:18;14.30;99.90
34646;DHT22;20857;47.808;12.482;2023-06-26T00:07:44;14.20;99.90
34646;DHT22;20857;47.808;12.482;2023-06-26T00:10:09;14.20;99.90
34646;DHT22;20857;47.808;12.482;2023-06-26T00:12:35;14.10;99.90
34646;DHT22;20857;47.808;12.482;2023-06-26T00:15:01;13.90;99.90
34646;DHT22;20857;47.808;12.482;2023-06-26T00:17:27;14.00;99.90
34646;DHT22;20857;47.808;12.482;2023-06-26T00:19:52;13.90;99.90
34646;DHT22;20857;47.808;12.482;2023-06-26T00:22:18;13.90;99.90
34646;DHT22;20857;47.808;12.482;2023-06-26T00:24:44;13.70;99.90
34646;DHT22;20857;47.808;12.482;2023-06-26T00:27:10;13.60;99.90
34646;DHT22;20857;47.808;12.482;2023-06-26T00:29:36;13.50;99.90
34646;DHT22;20857;47.808;12.482;2023-06-26T00:32:01;13.20;99.90
34646;DHT22;20857;47.808;12.482;2023-06-26T00:34:27;13.10;99.90
34646;DHT22;20857;47.808;12.482;2023-06-26T00:36:53;13.20;99.90
34646;DHT22;20857;47.808;12.482;2023-06-26T00:39:18;13.30;99.90
34646;DHT22;20857;47.808;12.482;2023-06-26T00:41:44;13.40;99.90
34646;DHT22;20857;47.808;12.482;2023-06-26T00:44:10;13.70;99.90
34646;DHT22;20857;47.808;12.482;2023-06-26T00:46:35;13.70;99.90
34646;DHT22;20857;47.808;12.482;2023-06-26T00:49:02;13.70;99.90
34646;DHT22;20857;47.808;12.482;2023-06-26T00:51:30;13.70;99.90
34646;DHT22;20857;47.808;12.482;2023-06-26T00:53:56;13.80;99.90
34646;DHT22;20857;47.808;12.482;2023-06-26T00:56:23;13.60;99.90
34646;DHT22;20857;47.808;12.482;2023-06-26T00:58:49;13.60;99.90
34646;DHT22;20857;47.808;12.482;2023-06-26T01:01:15;13.60;99.90
34646;DHT22;20857;47.808;12.482;2023-06-26T01:03:44;13.60;99.90
34646;DHT22;20857;47.808;12.482;2023-06-26T01:06:13;13.60;99.90
34646;DHT22;20857;47.808;12.482;2023-06-26T01:08:40;13.60;99.90
34646;DHT22;20857;47.808;12.482;2023-06-26T01:11:07;13.70;99.90
34646;DHT22;20857;47.808;12.482;2023-06-26T01:13:33;13.70;99.90
34646;DHT22;20857;47.808;12.482;2023-06-26T01:16:00;13.70;99.90
34646;DHT22;20857;47.808;12.482;2023-06-26T01:18:26;13.60;99.90
34646;DHT22;20857;47.808;12.482;2023-06-26T01:20:53;13.50;99.90
34646;DHT22;20857;47.808;12.482;2023-06-26T01:26:21;13.40;99.90
34646;DHT22;20857;47.808;12.482;2023-06-26T01:28:48;13.30;99.90
34646;DHT22;20857;47.808;12.482;2023-06-26T01:31:15;13.40;99.90
34646;DHT22;20857;47.808;12.482;2023-06-26T01:33:41;13.30;99.90
34646;DHT22;20857;47.808;12.482;2023-06-26T01:36:07;13.40;99.90
34646;DHT22;20857;47.808;12.482;2023-06-26T01:38:32;13.40;99.90
34646;DHT22;20857;47.808;12.482;2023-06-26T01:41:00;13.40;99.90
34646;DHT22;20857;47.808;12.482;2023-06-26T01:46:25;13.40;99.90
34646;DHT22;20857;47.808;12.482;2023-06-26T01:49:15;13.50;99.90
34646;DHT22;20857;47.808;12.482;2023-06-26T01:54:21;13.70;99.90
34646;DHT22;20857;47.808;12.482;2023-06-26T01:56:50;13.60;99.90
34646;DHT22;20857;47.808;12.482;2023-06-26T01:59:19;13.60;99.90
34646;DHT22;20857;47.808;12.482;2023-06-26T02:01:46;13.40;99.90
34646;DHT22;20857;47.808;12.482;2023-06-26T02:04:12;13.00;99.90
34646;DHT22;20857;47.808;12.482;2023-06-26T02:06:38;12.70;99.90
34646;DHT22;20857;47.808;12.482;2023-06-26T02:09:03;12.60;99.90
34646;DHT22;20857;47.808;12.482;2023-06-26T02:11:29;12.60;99.90
34646;DHT22;20857;47.808;12.482;2023-06-26T02:13:55;12.50;99.90
34646;DHT22;20857;47.808;12.482;2023-06-26T02:16:20;12.60;99.90
34646;DHT22;20857;47.808;12.482;2023-06-26T02:18:46;12.60;99.90
34646;DHT22;20857;47.808;12.482;2023-06-26T02:21:12;12.60;99.90
34646;DHT22;20857;47.808;12.482;2023-06-26T02:23:38;12.70;99.90
34646;DHT22;20857;47.808;12.482;2023-06-26T02:26:04;12.70;99.90
34646;DHT22;20857;47.808;12.482;2023-06-26T02:28:29;12.70;99.90
34646;DHT22;20857;47.808;12.482;2023-06-26T02:30:56;12.70;99.90
34646;DHT22;20857;47.808;12.482;2023-06-26T02:33:22;12.80;99.90
34646;DHT22;20857;47.808;12.482;2023-06-26T02:35:48;12.90;99.90
34646;DHT22;20857;47.808;12.482;2023-06-26T02:38:15;12.80;99.90
34646;DHT22;20857;47.808;12.482;2023-06-26T02:40:41;12.80;99.90
34646;DHT22;20857;47.808;12.482;2023-06-26T02:43:06;12.40;99.90
34646;DHT22;20857;47.808;12.482;2023-06-26T02:45:37;12.20;99.90
34646;DHT22;20857;47.808;12.482;2023-06-26T02:48:03;12.00;99.90
34646;DHT22;20857;47.808;12.482;2023-06-26T02:50:28;12.00;99.90
34646;DHT22;20857;47.808;12.482;2023-06-26T02:52:54;11.90;99.90
34646;DHT22;20857;47.808;12.482;2023-06-26T02:55:20;12.00;99.90
34646;DHT22;20857;47.808;12.482;2023-06-26T02:57:46;11.90;99.90
34646;DHT22;20857;47.808;12.482;2023-06-26T03:00:12;11.90;99.90
34646;DHT22;20857;47.808;12.482;2023-06-26T03:02:38;12.00;99.90
34646;DHT22;20857;47.808;12.482;2023-06-26T03:05:04;12.00;99.90
34646;DHT22;20857;47.808;12.482;2023-06-26T03:07:30;11.90;99.90
34646;DHT22;20857;47.808;12.482;2023-06-26T03:09:55;11.70;99.90
34646;DHT22;20857;47.808;12.482;2023-06-26T03:12:21;11.60;99.90
34646;DHT22;20857;47.808;12.482;2023-06-26T03:14:47;11.60;99.90
34646;DHT22;20857;47.808;12.482;2023-06-26T03:17:12;11.50;99.90
34646;DHT22;20857;47.808;12.482;2023-06-26T03:19:38;11.60;99.90
34646;DHT22;20857;47.808;12.482;2023-06-26T03:22:04;11.70;99.90
34646;DHT22;20857;47.808;12.482;2023-06-26T03:24:29;11.90;99.90
34646;DHT22;20857;47.808;12.482;2023-06-26T03:26:55;11.90;99.90
34646;DHT22;20857;47.808;12.482;2023-06-26T03:29:21;12.00;99.90
34646;DHT22;20857;47.808;12.482;2023-06-26T03:31:46;12.20;99.90
34646;DHT22;20857;47.808;12.482;2023-06-26T03:34:12;12.10;99.90
34646;DHT22;20857;47.808;12.482;2023-06-26T03:36:38;12.10;99.90
34646;DHT22;20857;47.808;12.482;2023-06-26T03:39:03;12.00;99.90
34646;DHT22;20857;47.808;12.482;2023-06-26T03:41:29;12.00;99.90
34646;DHT22;20857;47.808;12.482;2023-06-26T03:43:55;12.10;99.90
34646;DHT22;20857;47.808;12.482;2023-06-26T03:46:22;12.10;99.90
34646;DHT22;20857;47.808;12.482;2023-06-26T03:48:48;12.20;99.90
34646;DHT22;20857;47.808;12.482;2023-06-26T03:51:14;12.20;99.90
34646;DHT22;20857;47.808;12.482;2023-06-26T03:53:40;12.30;99.90
34646;DHT22;20857;47.808;12.482;2023-06-26T03:56:05;12.30;99.90
34646;DHT22;20857;47.808;12.482;2023-06-26T03:58:31;12.40;99.90
34646;DHT22;20857;47.808;12.482;2023-06-26T04:00:57;12.40;99.90
34646;DHT22;20857;47.808;12.482;2023-06-26T04:03:23;12.40;99.90
34646;DHT22;20857;47.808;12.482;2023-06-26T04:05:49;12.50;99.90
34646;DHT22;20857;47.808;12.482;2023-06-26T04:08:14;12.50;99.90
34646;DHT22;20857;47.808;12.482;2023-06-26T04:10:40;12.70;99.90
34646;DHT22;20857;47.808;12.482;2023-06-26T04:13:05;12.90;99.90
34646;DHT22;20857;47.808;12.482;2023-06-26T04:15:31;13.00;99.90
34646;DHT22;20857;47.808;12.482;2023-06-26T04:17:56;13.30;99.90
34646;DHT22;20857;47.808;12.482;2023-06-26T04:20:22;13.30;99.90
34646;DHT22;20857;47.808;12.482;2023-06-26T04:22:48;13.40;99.90
34646;DHT22;20857;47.808;12.482;2023-06-26T04:25:13;13.40;99.90
34646;DHT22;20857;47.808;12.482;2023-06-26T04:27:39;13.50;99.90
34646;DHT22;20857;47.808;12.482;2023-06-26T04:30:05;13.60;99.90
34646;DHT22;20857;47.808;12.482;2023-06-26T04:32:31;13.70;99.90
34646;DHT22;20857;47.808;12.482;2023-06-26T04:34:56;13.80;99.90
34646;DHT22;20857;47.808;12.482;2023-06-26T04:37:22;13.90;99.90
34646;DHT22;20857;47.808;12.482;2023-06-26T04:39:48;14.10;99.90
34646;DHT22;20857;47.808;12.482;2023-06-26T04:42:14;14.20;99.90
34646;DHT22;20857;47.808;12.482;2023-06-26T04:44:40;14.30;99.90
34646;DHT22;20857;47.808;12.482;2023-06-26T04:47:07;14.50;99.90
34646;DHT22;20857;47.808;12.482;2023-06-26T04:49:33;14.50;99.90
34646;DHT22;20857;47.808;12.482;2023-06-26T04:51:59;14.70;99.90
34646;DHT22;20857;47.808;12.482;2023-06-26T04:54:26;14.80;99.90
34646;DHT22;20857;47.808;12.482;2023-06-26T04:56:52;15.00;99.90
34646;DHT22;20857;47.808;12.482;2023-06-26T04:59:18;15.30;99.90
34646;DHT22;20857;47.808;12.482;2023-06-26T05:01:43;15.40;99.90
34646;DHT22;20857;47.808;12.482;2023-06-26T05:04:13;15.60;99.90
34646;DHT22;20857;47.808;12.482;2023-06-26T05:06:39;15.90;99.90
34646;DHT22;20857;47.808;12.482;2023-06-26T05:09:04;16.00;99.90
34646;DHT22;20857;47.808;12.482;2023-06-26T05:11:30;16.20;99.90
34646;DHT22;20857;47.808;12.482;2023-06-26T05:13:55;16.30;99.90
34646;DHT22;20857;47.808;12.482;2023-06-26T05:16:21;16.50;99.90
34646;DHT22;20857;47.808;12.482;2023-06-26T05:18:47;16.60;99.90
34646;DHT22;20857;47.808;12.482;2023-06-26T05:21:12;16.80;99.90
34646;DHT22;20857;47.808;12.482;2023-06-26T05:23:38;17.00;99.90
34646;DHT22;20857;47.808;12.482;2023-06-26T05:26:04;17.10;99.90
34646;DHT22;20857;47.808;12.482;2023-06-26T05:28:31;17.20;99.90
34646;DHT22;20857;47.808;12.482;2023-06-26T05:30:57;17.40;99.90
34646;DHT22;20857;47.808;12.482;2023-06-26T05:33:25;17.40;99.90
34646;DHT22;20857;47.808;12.482;2023-06-26T05:35:55;17.60;99.90
34646;DHT22;20857;47.808;12.482;2023-06-26T05:38:21;17.70;99.90
34646;DHT22;20857;47.808;12.482;2023-06-26T05:40:47;17.80;99.90
34646;DHT22;20857;47.808;12.482;2023-06-26T05:43:13;17.90;99.90
34646;DHT22;20857;47.808;12.482;2023-06-26T05:45:39;18.00;99.90
34646;DHT22;20857;47.808;12.482;2023-06-26T05:48:05;18.10;99.90
34646;DHT22;20857;47.808;12.482;2023-06-26T05:50:31;18.30;99.90
34646;DHT22;20857;47.808;12.482;2023-06-26T05:52:56;18.40;99.90
34646;DHT22;20857;47.808;12.482;2023-06-26T05:55:23;18.50;99.90
34646;DHT22;20857;47.808;12.482;2023-06-26T05:57:50;18.70;99.90
34646;DHT22;20857;47.808;12.482;2023-06-26T06:00:16;18.90;99.90
34646;DHT22;20857;47.808;12.482;2023-06-26T06:02:42;19.00;99.90
34646;DHT22;20857;47.808;12.482;2023-06-26T06:05:09;19.20;99.90
34646;DHT22;20857;47.808;12.482;2023-06-26T06:07:35;19.30;99.90
34646;DHT22;20857;47.808;12.482;2023-06-26T06:10:02;19.30;99.90
34646;DHT22;20857;47.808;12.482;2023-06-26T06:12:28;19.50;99.90
34646;DHT22;20857;47.808;12.482;2023-06-26T06:14:56;19.60;99.90
34646;DHT22;20857;47.808;12.482;2023-06-26T06:17:21;19.70;99.90
34646;DHT22;20857;47.808;12.482;2023-06-26T06:19:47;19.80;99.90
34646;DHT22;20857;47.808;12.482;2023-06-26T06:22:13;19.90;99.90
34646;DHT22;20857;47.808;12.482;2023-06-26T06:24:39;20.10;99.90
34646;DHT22;20857;47.808;12.482;2023-06-26T06:27:04;20.20;99.90
34646;DHT22;20857;47.808;12.482;2023-06-26T06:29:30;20.40;99.90
34646;DHT22;20857;47.808;12.482;2023-06-26T06:31:56;20.50;99.90
34646;DHT22;20857;47.808;12.482;2023-06-26T06:34:21;20.60;99.90
34646;DHT22;20857;47.808;12.482;2023-06-26T06:36:47;20.80;99.90
34646;DHT22;20857;47.808;12.482;2023-06-26T06:39:13;20.90;99.90
34646;DHT22;20857;47.808;12.482;2023-06-26T06:41:38;21.00;99.90
34646;DHT22;20857;47.808;12.482;2023-06-26T06:44:04;21.20;99.90
34646;DHT22;20857;47.808;12.482;2023-06-26T06:46:30;21.30;99.90
34646;DHT22;20857;47.808;12.482;2023-06-26T06:48:55;21.40;99.90
34646;DHT22;20857;47.808;12.482;2023-06-26T06:51:22;21.50;99.90
34646;DHT22;20857;47.808;12.482;2023-06-26T06:53:47;21.80;99.90
34646;DHT22;20857;47.808;12.482;2023-06-26T06:56:13;21.90;99.90
34646;DHT22;20857;47.808;12.482;2023-06-26T06:58:38;22.30;99.90
34646;DHT22;20857;47.808;12.482;2023-06-26T07:01:09;22.70;99.90
34646;DHT22;20857;47.808;12.482;2023-06-26T07:03:34;22.90;99.90
34646;DHT22;20857;47.808;12.482;2023-06-26T07:06:00;22.90;99.80
34646;DHT22;20857;47.808;12.482;2023-06-26T07:08:26;22.90;99.90
34646;DHT22;20857;47.808;12.482;2023-06-26T07:10:52;23.00;99.60
34646;DHT22;20857;47.808;12.482;2023-06-26T07:13:17;23.00;99.50
34646;DHT22;20857;47.808;12.482;2023-06-26T07:15:43;23.00;99.60
34646;DHT22;20857;47.808;12.482;2023-06-26T07:18:09;22.90;99.80
34646;DHT22;20857;47.808;12.482;2023-06-26T07:20:34;22.90;99.40
34646;DHT22;20857;47.808;12.482;2023-06-26T07:23:00;22.90;99.60
34646;DHT22;20857;47.808;12.482;2023-06-26T07:25:26;22.90;99.00
34646;DHT22;20857;47.808;12.482;2023-06-26T07:27:51;23.00;98.90
34646;DHT22;20857;47.808;12.482;2023-06-26T07:30:17;23.00;99.30
34646;DHT22;20857;47.808;12.482;2023-06-26T07:32:45;23.10;98.70
34646;DHT22;20857;47.808;12.482;2023-06-26T07:35:10;23.20;99.30
34646;DHT22;20857;47.808;12.482;2023-06-26T07:37:36;23.30;99.30
34646;DHT22;20857;47.808;12.482;2023-06-26T07:40:02;23.30;98.70
34646;DHT22;20857;47.808;12.482;2023-06-26T07:42:28;23.40;98.70
34646;DHT22;20857;47.808;12.482;2023-06-26T07:44:54;23.40;98.70
34646;DHT22;20857;47.808;12.482;2023-06-26T07:47:20;23.60;98.30
34646;DHT22;20857;47.808;12.482;2023-06-26T07:49:45;23.60;99.30
34646;DHT22;20857;47.808;12.482;2023-06-26T07:52:11;23.70;98.90
34646;DHT22;20857;47.808;12.482;2023-06-26T07:54:37;23.80;99.00
34646;DHT22;20857;47.808;12.482;2023-06-26T07:57:04;24.10;97.80
34646;DHT22;20857;47.808;12.482;2023-06-26T07:59:32;24.20;97.20
34646;DHT22;20857;47.808;12.482;2023-06-26T08:01:58;24.20;98.00
34646;DHT22;20857;47.808;12.482;2023-06-26T08:04:26;24.30;97.80
34646;DHT22;20857;47.808;12.482;2023-06-26T08:06:54;24.50;97.20
34646;DHT22;20857;47.808;12.482;2023-06-26T08:09:21;24.60;97.90
34646;DHT22;20857;47.808;12.482;2023-06-26T08:11:47;24.80;96.70
34646;DHT22;20857;47.808;12.482;2023-06-26T08:14:13;24.90;96.40
34646;DHT22;20857;47.808;12.482;2023-06-26T08:16:40;25.20;95.90
34646;DHT22;20857;47.808;12.482;2023-06-26T08:19:06;25.30;94.80
34646;DHT22;20857;47.808;12.482;2023-06-26T08:21:31;25.50;93.80
34646;DHT22;20857;47.808;12.482;2023-06-26T08:23:57;25.60;94.40
34646;DHT22;20857;47.808;12.482;2023-06-26T08:26:23;25.90;94.60
34646;DHT22;20857;47.808;12.482;2023-06-26T08:28:48;26.00;94.60
34646;DHT22;20857;47.808;12.482;2023-06-26T08:31:14;26.10;92.60
34646;DHT22;20857;47.808;12.482;2023-06-26T08:33:40;26.10;95.20
34646;DHT22;20857;47.808;12.482;2023-06-26T08:36:05;26.00;94.60
34646;DHT22;20857;47.808;12.482;2023-06-26T08:38:31;26.10;95.40
34646;DHT22;20857;47.808;12.482;2023-06-26T08:40:56;26.00;94.30
34646;DHT22;20857;47.808;12.482;2023-06-26T08:43:22;26.00;93.20
34646;DHT22;20857;47.808;12.482;2023-06-26T08:45:48;26.00;93.70
34646;DHT22;20857;47.808;12.482;2023-06-26T08:48:17;25.80;93.90
34646;DHT22;20857;47.808;12.482;2023-06-26T08:50:43;25.70;92.80
34646;DHT22;20857;47.808;12.482;2023-06-26T08:55:44;25.50;92.50
34646;DHT22;20857;47.808;12.482;2023-06-26T08:58:10;25.40;92.90
34646;DHT22;20857;47.808;12.482;2023-06-26T09:00:38;25.50;92.70
34646;DHT22;20857;47.808;12.482;2023-06-26T09:03:04;25.60;93.00
34646;DHT22;20857;47.808;12.482;2023-06-26T09:05:29;25.80;92.60
34646;DHT22;20857;47.808;12.482;2023-06-26T09:07:57;26.10;92.00
34646;DHT22;20857;47.808;12.482;2023-06-26T09:10:24;26.10;92.10
34646;DHT22;20857;47.808;12.482;2023-06-26T09:12:50;26.10;91.30
34646;DHT22;20857;47.808;12.482;2023-06-26T09:15:19;26.40;92.60
34646;DHT22;20857;47.808;12.482;2023-06-26T09:17:44;26.70;91.10
34646;DHT22;20857;47.808;12.482;2023-06-26T09:20:10;26.70;91.70
34646;DHT22;20857;47.808;12.482;2023-06-26T09:22:37;26.40;90.70
34646;DHT22;20857;47.808;12.482;2023-06-26T09:25:05;26.20;91.40
34646;DHT22;20857;47.808;12.482;2023-06-26T09:27:31;26.10;94.20
34646;DHT22;20857;47.808;12.482;2023-06-26T09:29:57;26.10;92.00
34646;DHT22;20857;47.808;12.482;2023-06-26T09:32:26;26.10;92.70
34646;DHT22;20857;47.808;12.482;2023-06-26T09:34:53;26.30;92.10
34646;DHT22;20857;47.808;12.482;2023-06-26T09:37:23;26.60;91.40
34646;DHT22;20857;47.808;12.482;2023-06-26T09:39:50;26.70;91.50
34646;DHT22;20857;47.808;12.482;2023-06-26T09:42:16;26.60;91.60
34646;DHT22;20857;47.808;12.482;2023-06-26T09:44:46;26.60;93.20
34646;DHT22;20857;47.808;12.482;2023-06-26T09:47:12;26.80;92.70
34646;DHT22;20857;47.808;12.482;2023-06-26T09:49:41;26.90;91.60
34646;DHT22;20857;47.808;12.482;2023-06-26T09:52:08;27.00;92.50
34646;DHT22;20857;47.808;12.482;2023-06-26T09:54:34;26.90;92.20
34646;DHT22;20857;47.808;12.482;2023-06-26T09:57:15;27.10;92.60
34646;DHT22;20857;47.808;12.482;2023-06-26T09:59:42;27.30;92.50
34646;DHT22;20857;47.808;12.482;2023-06-26T10:02:09;27.40;91.80
34646;DHT22;20857;47.808;12.482;2023-06-26T10:04:36;27.50;91.80
34646;DHT22;20857;47.808;12.482;2023-06-26T10:07:06;27.40;92.50
34646;DHT22;20857;47.808;12.482;2023-06-26T10:09:32;27.50;91.70
34646;DHT22;20857;47.808;12.482;2023-06-26T10:14:31;27.50;93.00
34646;DHT22;20857;47.808;12.482;2023-06-26T10:16:58;27.50;92.70
34646;DHT22;20857;47.808;12.482;2023-06-26T10:19:27;27.40;91.90
34646;DHT22;20857;47.808;12.482;2023-06-26T10:21:53;27.50;92.40
34646;DHT22;20857;47.808;12.482;2023-06-26T10:24:21;27.70;93.00
34646;DHT22;20857;47.808;12.482;2023-06-26T10:26:50;27.50;91.50
34646;DHT22;20857;47.808;12.482;2023-06-26T10:29:19;27.30;91.50
34646;DHT22;20857;47.808;12.482;2023-06-26T10:31:52;27.10;92.70
34646;DHT22;20857;47.808;12.482;2023-06-26T10:34:19;26.90;92.00
34646;DHT22;20857;47.808;12.482;2023-06-26T10:36:45;26.90;91.00
34646;DHT22;20857;47.808;12.482;2023-06-26T10:39:13;27.20;93.70
34646;DHT22;20857;47.808;12.482;2023-06-26T10:41:42;27.50;92.10
34646;DHT22;20857;47.808;12.482;2023-06-26T10:44:09;27.60;92.00
34646;DHT22;20857;47.808;12.482;2023-06-26T10:46:55;27.70;91.00
34646;DHT22;20857;47.808;12.482;2023-06-26T10:49:30;27.80;92.20
34646;DHT22;20857;47.808;12.482;2023-06-26T10:52:01;27.90;91.40
34646;DHT22;20857;47.808;12.482;2023-06-26T10:54:31;28.10;91.10
34646;DHT22;20857;47.808;12.482;2023-06-26T10:56:57;28.20;90.90
34646;DHT22;20857;47.808;12.482;2023-06-26T10:59:27;28.30;91.50
34646;DHT22;20857;47.808;12.482;2023-06-26T11:01:58;28.30;91.50
34646;DHT22;20857;47.808;12.482;2023-06-26T11:04:46;28.30;91.60
34646;DHT22;20857;47.808;12.482;2023-06-26T11:07:24;28.10;90.60
34646;DHT22;20857;47.808;12.482;2023-06-26T11:10:07;28.30;90.60
34646;DHT22;20857;47.808;12.482;2023-06-26T11:12:38;28.50;92.40
34646;DHT22;20857;47.808;12.482;2023-06-26T11:15:09;28.70;89.80
34646;DHT22;20857;47.808;12.482;2023-06-26T11:17:36;29.00;91.40
34646;DHT22;20857;47.808;12.482;2023-06-26T11:20:06;29.40;89.10
34646;DHT22;20857;47.808;12.482;2023-06-26T11:22:40;29.60;90.80
34646;DHT22;20857;47.808;12.482;2023-06-26T11:25:06;29.60;90.10
34646;DHT22;20857;47.808;12.482;2023-06-26T11:30:08;29.90;89.10
34646;DHT22;20857;47.808;12.482;2023-06-26T11:32:34;29.90;87.40
34646;DHT22;20857;47.808;12.482;2023-06-26T11:35:00;29.90;88.50
34646;DHT22;20857;47.808;12.482;2023-06-26T11:37:26;30.20;90.00
34646;DHT22;20857;47.808;12.482;2023-06-26T11:39:52;30.30;86.70
34646;DHT22;20857;47.808;12.482;2023-06-26T11:42:21;29.90;88.10
34646;DHT22;20857;47.808;12.482;2023-06-26T11:44:46;29.70;88.00
34646;DHT22;20857;47.808;12.482;2023-06-26T11:47:19;29.80;90.50
34646;DHT22;20857;47.808;12.482;2023-06-26T11:49:46;29.70;90.40
34646;DHT22;20857;47.808;12.482;2023-06-26T11:52:13;29.70;88.20
34646;DHT22;20857;47.808;12.482;2023-06-26T11:54:40;29.80;88.20
34646;DHT22;20857;47.808;12.482;2023-06-26T11:57:05;29.50;84.40
34646;DHT22;20857;47.808;12.482;2023-06-26T11:59:36;29.80;87.30
34646;DHT22;20857;47.808;12.482;2023-06-26T12:02:09;30.20;84.20
34646;DHT22;20857;47.808;12.482;2023-06-26T12:04:41;30.10;85.20
34646;DHT22;20857;47.808;12.482;2023-06-26T12:07:08;30.50;83.40
34646;DHT22;20857;47.808;12.482;2023-06-26T12:09:43;31.00;86.80
34646;DHT22;20857;47.808;12.482;2023-06-26T12:12:12;31.90;80.80
34646;DHT22;20857;47.808;12.482;2023-06-26T12:14:39;32.40;80.10
34646;DHT22;20857;47.808;12.482;2023-06-26T12:17:11;32.00;83.60
34646;DHT22;20857;47.808;12.482;2023-06-26T12:19:38;31.30;82.30
34646;DHT22;20857;47.808;12.482;2023-06-26T12:22:08;31.30;80.40
34646;DHT22;20857;47.808;12.482;2023-06-26T12:24:39;30.90;79.50
34646;DHT22;20857;47.808;12.482;2023-06-26T12:27:13;30.20;78.90
34646;DHT22;20857;47.808;12.482;2023-06-26T12:29:40;30.80;80.30
34646;DHT22;20857;47.808;12.482;2023-06-26T12:32:10;32.20;82.50
34646;DHT22;20857;47.808;12.482;2023-06-26T12:34:37;33.30;82.90
34646;DHT22;20857;47.808;12.482;2023-06-26T12:37:09;34.40;78.30
34646;DHT22;20857;47.808;12.482;2023-06-26T12:39:53;33.70;72.20
34646;DHT22;20857;47.808;12.482;2023-06-26T12:42:24;32.90;73.70
34646;DHT22;20857;47.808;12.482;2023-06-26T12:44:50;32.90;72.90
34646;DHT22;20857;47.808;12.482;2023-06-26T12:47:17;33.90;74.20
34646;DHT22;20857;47.808;12.482;2023-06-26T12:49:44;33.40;72.90
34646;DHT22;20857;47.808;12.482;2023-06-26T12:52:14;32.30;73.80
34646;DHT22;20857;47.808;12.482;2023-06-26T12:54:41;31.20;73.00
34646;DHT22;20857;47.808;12.482;2023-06-26T12:57:08;32.00;75.30
34646;DHT22;20857;47.808;12.482;2023-06-26T12:59:37;32.20;74.50
34646;DHT22;20857;47.808;12.482;2023-06-26T13:02:03;32.20;77.10
34646;DHT22;20857;47.808;12.482;2023-06-26T13:04:29;32.80;73.20
34646;DHT22;20857;47.808;12.482;2023-06-26T13:06:55;34.00;70.40
34646;DHT22;20857;47.808;12.482;2023-06-26T13:09:22;35.10;69.40
34646;DHT22;20857;47.808;12.482;2023-06-26T13:11:49;35.70;70.70
34646;DHT22;20857;47.808;12.482;2023-06-26T13:14:14;36.80;67.70
34646;DHT22;20857;47.808;12.482;2023-06-26T13:16:40;36.40;65.90
34646;DHT22;20857;47.808;12.482;2023-06-26T13:19:06;36.00;67.10
34646;DHT22;20857;47.808;12.482;2023-06-26T13:21:34;35.40;66.40
34646;DHT22;20857;47.808;12.482;2023-06-26T13:24:00;36.20;65.40
34646;DHT22;20857;47.808;12.482;2023-06-26T13:26:26;36.00;66.10
34646;DHT22;20857;47.808;12.482;2023-06-26T13:28:54;36.20;65.40
34646;DHT22;20857;47.808;12.482;2023-06-26T13:31:19;36.80;65.20
34646;DHT22;20857;47.808;12.482;2023-06-26T13:33:47;36.20;63.50
34646;DHT22;20857;47.808;12.482;2023-06-26T13:36:17;36.10;66.70
34646;DHT22;20857;47.808;12.482;2023-06-26T13:38:43;36.10;63.30
34646;DHT22;20857;47.808;12.482;2023-06-26T13:41:09;36.00;65.00
34646;DHT22;20857;47.808;12.482;2023-06-26T13:43:34;36.10;63.40
34646;DHT22;20857;47.808;12.482;2023-06-26T13:46:01;37.00;61.80
34646;DHT22;20857;47.808;12.482;2023-06-26T13:48:28;36.80;62.10
34646;DHT22;20857;47.808;12.482;2023-06-26T13:50:54;35.80;63.00
34646;DHT22;20857;47.808;12.482;2023-06-26T13:53:21;34.20;62.70
34646;DHT22;20857;47.808;12.482;2023-06-26T13:55:47;33.80;64.50
34646;DHT22;20857;47.808;12.482;2023-06-26T13:58:13;34.50;65.30
34646;DHT22;20857;47.808;12.482;2023-06-26T14:00:40;34.70;64.60
34646;DHT22;20857;47.808;12.482;2023-06-26T14:03:06;35.60;63.70
34646;DHT22;20857;47.808;12.482;2023-06-26T14:05:33;36.20;62.30
34646;DHT22;20857;47.808;12.482;2023-06-26T14:07:59;37.00;63.60
34646;DHT22;20857;47.808;12.482;2023-06-26T14:10:25;37.40;62.80
34646;DHT22;20857;47.808;12.482;2023-06-26T14:12:51;36.00;62.80
34646;DHT22;20857;47.808;12.482;2023-06-26T14:15:16;33.50;63.10
34646;DHT22;20857;47.808;12.482;2023-06-26T14:17:42;32.30;65.30
34646;DHT22;20857;47.808;12.482;2023-06-26T14:20:09;33.30;65.30
34646;DHT22;20857;47.808;12.482;2023-06-26T14:22:39;34.60;63.70
34646;DHT22;20857;47.808;12.482;2023-06-26T14:25:05;34.80;63.40
34646;DHT22;20857;47.808;12.482;2023-06-26T14:27:31;34.50;65.60
34646;DHT22;20857;47.808;12.482;2023-06-26T14:29:57;34.90;62.30
34646;DHT22;20857;47.808;12.482;2023-06-26T14:32:22;35.40;63.20
34646;DHT22;20857;47.808;12.482;2023-06-26T14:34:48;36.80;64.70
34646;DHT22;20857;47.808;12.482;2023-06-26T14:37:13;36.90;65.00
34646;DHT22;20857;47.808;12.482;2023-06-26T14:39:39;35.80;64.70
34646;DHT22;20857;47.808;12.482;2023-06-26T14:42:05;34.60;64.90
34646;DHT22;20857;47.808;12.482;2023-06-26T14:44:31;33.50;64.40
34646;DHT22;20857;47.808;12.482;2023-06-26T14:46:56;32.60;66.00
34646;DHT22;20857;47.808;12.482;2023-06-26T14:49:22;32.60;66.00
34646;DHT22;20857;47.808;12.482;2023-06-26T14:51:47;32.10;65.30
34646;DHT22;20857;47.808;12.482;2023-06-26T14:54:13;31.40;65.90
34646;DHT22;20857;47.808;12.482;2023-06-26T14:56:39;31.30;67.70
34646;DHT22;20857;47.808;12.482;2023-06-26T14:59:04;31.70;66.20
34646;DHT22;20857;47.808;12.482;2023-06-26T15:01:33;31.80;67.60
34646;DHT22;20857;47.808;12.482;2023-06-26T15:03:58;32.30;66.60
34646;DHT22;20857;47.808;12.482;2023-06-26T15:06:24;34.10;65.30
34646;DHT22;20857;47.808;12.482;2023-06-26T15:08:49;34.90;65.30
34646;DHT22;20857;47.808;12.482;2023-06-26T15:11:15;36.00;64.30
34646;DHT22;20857;47.808;12.482;2023-06-26T15:13:40;36.90;63.00
34646;DHT22;20857;47.808;12.482;2023-06-26T15:16:06;37.80;60.20
34646;DHT22;20857;47.808;12.482;2023-06-26T15:18:32;37.00;61.20
34646;DHT22;20857;47.808;12.482;2023-06-26T15:20:57;37.60;61.20
34646;DHT22;20857;47.808;12.482;2023-06-26T15:23:23;37.00;60.60
34646;DHT22;20857;47.808;12.482;2023-06-26T15:25:48;34.50;61.70
34646;DHT22;20857;47.808;12.482;2023-06-26T15:28:14;33.30;63.60